PH-0053 weather

Manila Hotel Heliport
Manila South Port, Philippines

Public forecast

Using degrees Celsius for public forecast. Weather courtesy of forecast.io.

METAR (pilot weather report)

Closest report is Ninoy Aquino International Airport, 5.2 nm (9.7 km) SSE. Retrieved 2019/07/18 14:00 UTC (27 minutes ago):

RPLL 181400Z 21006KT 9999 FEW022 BKN090 27/25 Q1008 NOSIG RMK A2977

TAF (pilot weather forecast)

Closest forecast is Ninoy Aquino International Airport, 5.2 nm (9.7 km) SSE. Retrieved 2019/07/18 12:00 UTC (2 hours ago):

TAF RPLL 181100Z 1812/1918 26010KT 9999 FEW023 BKN090 TX32/1906Z TN26/1821Z TEMPO 1812/1818 23005KT 7000 SHRA FEW020CB SCT023 OVC080 TEMPO 1818/1824 20006KT 8000 -SHRA FEW020CB SCT023 OVC080